createdAt,value
2022-11-08T00:02:13.879Z,2.40
2022-11-08T00:04:40.778Z,2.36
2022-11-08T00:07:22.878Z,2.31
2022-11-08T00:10:04.981Z,2.28
2022-11-08T00:12:47.379Z,2.24
2022-11-08T00:15:14.098Z,2.19
2022-11-08T00:17:40.846Z,2.18
2022-11-08T00:20:09.093Z,2.16
2022-11-08T00:22:35.777Z,2.15
2022-11-08T00:25:02.588Z,2.13
2022-11-08T00:27:29.298Z,2.11
2022-11-08T00:29:56.143Z,2.07
2022-11-08T00:32:25.346Z,2.04
2022-11-08T00:34:53.003Z,2.01
2022-11-08T00:37:22.321Z,1.99
2022-11-08T00:39:49.674Z,1.99
2022-11-08T00:42:16.502Z,1.99
2022-11-08T00:44:43.238Z,1.99
2022-11-08T00:47:10.414Z,1.97
2022-11-08T00:49:37.192Z,1.93
2022-11-08T00:52:03.957Z,1.89
2022-11-08T00:54:30.741Z,1.85
2022-11-08T00:56:57.701Z,1.81
2022-11-08T00:59:24.408Z,1.78
2022-11-08T01:01:51.206Z,1.76
2022-11-08T01:04:18.985Z,1.73
2022-11-08T01:06:46.368Z,1.70
2022-11-08T01:09:13.558Z,1.65
2022-11-08T01:11:45.287Z,1.61
2022-11-08T01:14:13.340Z,1.57
2022-11-08T01:16:40.546Z,1.54
2022-11-08T01:19:07.683Z,1.52
2022-11-08T01:21:34.405Z,1.51
2022-11-08T01:24:01.267Z,1.53
2022-11-08T01:26:29.656Z,1.56
2022-11-08T01:28:57.322Z,1.58
2022-11-08T01:31:26.788Z,1.60
2022-11-08T01:33:53.506Z,1.60
2022-11-08T01:36:22.872Z,1.59
2022-11-08T01:38:50.164Z,1.55
2022-11-08T01:41:19.858Z,1.53
2022-11-08T01:43:48.501Z,1.52
2022-11-08T01:46:30.383Z,1.52
2022-11-08T01:49:04.146Z,1.51
2022-11-08T01:51:37.691Z,1.51
2022-11-08T01:54:08.745Z,1.50
2022-11-08T01:56:36.686Z,1.47
2022-11-08T01:59:06.177Z,1.44
2022-11-08T02:01:33.229Z,1.42
2022-11-08T02:04:00.675Z,1.40
2022-11-08T02:06:30.730Z,1.41
2022-11-08T02:09:02.650Z,1.42
2022-11-08T02:11:30.709Z,1.42
2022-11-08T02:13:58.246Z,1.42
2022-11-08T02:16:24.954Z,1.42
2022-11-08T02:18:51.817Z,1.39
2022-11-08T02:21:41.369Z,1.36
2022-11-08T02:24:12.159Z,1.33
2022-11-08T02:26:39.176Z,1.31
2022-11-08T02:29:28.207Z,1.32
2022-11-08T02:31:56.234Z,1.31
2022-11-08T02:34:28.141Z,1.30
2022-11-08T02:36:55.779Z,1.27
2022-11-08T02:39:23.253Z,1.24
2022-11-08T02:41:49.916Z,1.21
2022-11-08T02:44:16.576Z,1.16
2022-11-08T02:46:43.347Z,1.12
2022-11-08T02:49:10.021Z,1.08
2022-11-08T02:51:36.933Z,1.08
2022-11-08T02:54:03.769Z,1.07
2022-11-08T02:56:30.827Z,1.07
2022-11-08T02:58:57.505Z,1.07
2022-11-08T03:01:24.377Z,1.06
2022-11-08T03:03:51.268Z,1.03
2022-11-08T03:06:18.103Z,0.98
2022-11-08T03:08:44.790Z,0.93
2022-11-08T03:11:11.499Z,0.90
2022-11-08T03:13:38.241Z,0.88
2022-11-08T03:16:06.314Z,0.87
2022-11-08T03:18:33.684Z,0.87
2022-11-08T03:21:01.702Z,0.86
2022-11-08T03:23:28.938Z,0.84
2022-11-08T03:25:55.898Z,0.80
2022-11-08T03:28:23.318Z,0.76
2022-11-08T03:30:52.395Z,0.71
2022-11-08T03:33:20.848Z,0.66
2022-11-08T03:35:49.006Z,0.63
2022-11-08T03:38:16.910Z,0.62
2022-11-08T03:40:45.601Z,0.63
2022-11-08T03:43:12.444Z,0.62
2022-11-08T03:45:39.236Z,0.62
2022-11-08T03:48:06.316Z,0.61
2022-11-08T03:50:33.042Z,0.58
2022-11-08T03:52:59.784Z,0.55
2022-11-08T03:55:27.878Z,0.53
2022-11-08T03:57:55.000Z,0.55
2022-11-08T04:00:24.844Z,0.56
2022-11-08T04:02:53.056Z,0.58
2022-11-08T04:05:20.723Z,0.61
2022-11-08T04:07:47.678Z,0.64
2022-11-08T04:10:14.471Z,0.65
2022-11-08T04:12:58.076Z,0.63
2022-11-08T04:15:25.727Z,0.59
2022-11-08T04:18:10.020Z,0.57
2022-11-08T04:20:56.779Z,0.57
2022-11-08T04:23:23.484Z,0.57
2022-11-08T04:25:56.127Z,0.57
2022-11-08T04:28:26.200Z,0.55
2022-11-08T04:30:54.586Z,0.55
2022-11-08T04:33:21.352Z,0.53
2022-11-08T04:35:49.006Z,0.52
2022-11-08T04:38:16.841Z,0.53
2022-11-08T04:40:43.987Z,0.56
2022-11-08T04:43:10.699Z,0.60
2022-11-08T04:45:37.521Z,0.62
2022-11-08T04:48:04.404Z,0.66
2022-11-08T04:50:31.063Z,0.66
2022-11-08T04:52:57.820Z,0.64
2022-11-08T04:55:24.610Z,0.62
2022-11-08T04:57:51.621Z,0.57
2022-11-08T05:00:18.698Z,0.52
2022-11-08T05:02:45.624Z,0.41
2022-11-08T05:05:12.460Z,0.27
2022-11-08T05:07:39.167Z,0.14
2022-11-08T05:10:06.635Z,0.08
2022-11-08T05:12:33.379Z,0.04
2022-11-08T05:15:00.115Z,0.01
2022-11-08T05:17:26.831Z,0.01
2022-11-08T05:20:09.056Z,0.05
2022-11-08T05:22:51.490Z,0.13
2022-11-08T05:25:18.267Z,0.18
2022-11-08T05:27:45.084Z,0.17
2022-11-08T05:30:12.050Z,0.12
2022-11-08T05:32:38.793Z,-0.02
2022-11-08T05:35:06.309Z,-0.19
2022-11-08T05:37:33.015Z,-0.23
2022-11-08T05:39:59.732Z,-0.18
2022-11-08T05:42:26.417Z,-0.12
2022-11-08T05:44:53.119Z,-0.06
2022-11-08T05:47:19.945Z,-0.02
2022-11-08T05:49:46.631Z,-0.07
2022-11-08T05:52:13.317Z,-0.11
2022-11-08T05:54:40.010Z,-0.09
2022-11-08T05:57:06.810Z,-0.05
2022-11-08T05:59:33.543Z,-0.07
2022-11-08T06:02:00.292Z,-0.09
2022-11-08T06:04:27.168Z,-0.03
2022-11-08T06:06:53.903Z,0.01
2022-11-08T06:09:20.676Z,0.09
2022-11-08T06:11:47.417Z,0.17
2022-11-08T06:14:14.100Z,0.25
2022-11-08T06:16:40.825Z,0.33
2022-11-08T06:19:07.669Z,0.41
2022-11-08T06:21:34.352Z,0.45
2022-11-08T06:24:01.110Z,0.53
2022-11-08T06:26:27.799Z,0.65
2022-11-08T06:28:54.536Z,0.80
2022-11-08T06:31:21.372Z,0.97
2022-11-08T06:33:48.185Z,1.15
2022-11-08T06:36:14.913Z,1.31
2022-11-08T06:38:41.854Z,1.46
2022-11-08T06:41:17.367Z,1.59
2022-11-08T06:43:44.189Z,1.74
2022-11-08T06:46:11.019Z,1.88
2022-11-08T06:48:37.858Z,2.03
2022-11-08T06:51:04.932Z,2.14
2022-11-08T06:53:32.346Z,2.32
2022-11-08T06:56:01.291Z,2.65
2022-11-08T06:58:28.594Z,3.05
2022-11-08T07:00:55.568Z,3.51
2022-11-08T07:03:22.283Z,4.03
2022-11-08T07:05:49.121Z,4.59
2022-11-08T07:08:20.664Z,5.09
2022-11-08T07:10:50.191Z,5.60
2022-11-08T07:13:17.379Z,6.01
2022-11-08T07:15:45.304Z,6.31
2022-11-08T07:18:14.029Z,6.49
2022-11-08T07:20:42.157Z,6.60
2022-11-08T07:23:10.075Z,6.64
2022-11-08T07:25:37.401Z,6.70
2022-11-08T07:28:06.721Z,6.91
2022-11-08T07:30:35.393Z,7.31
2022-11-08T07:33:03.021Z,7.75
2022-11-08T07:35:30.129Z,7.92
2022-11-08T07:37:57.054Z,8.03
2022-11-08T07:40:24.035Z,8.22
2022-11-08T07:43:11.425Z,8.47
2022-11-08T07:45:37.977Z,8.77
2022-11-08T07:48:11.529Z,9.05
2022-11-08T07:50:40.081Z,9.35
2022-11-08T07:53:07.505Z,9.65
2022-11-08T07:55:37.481Z,9.87
2022-11-08T07:58:05.340Z,10.05
2022-11-08T08:00:36.499Z,10.36
2022-11-08T08:03:05.186Z,10.70
2022-11-08T08:05:36.286Z,11.04
2022-11-08T08:08:03.908Z,11.45
2022-11-08T08:10:31.814Z,11.93
2022-11-08T08:12:58.630Z,12.51
2022-11-08T08:15:25.962Z,13.02
2022-11-08T08:17:52.946Z,13.46
2022-11-08T08:20:20.145Z,13.81
2022-11-08T08:22:48.866Z,14.35
2022-11-08T08:25:16.671Z,14.94
2022-11-08T08:27:50.616Z,15.49
2022-11-08T08:30:17.963Z,16.04
2022-11-08T08:32:47.953Z,16.56
2022-11-08T08:35:17.501Z,17.05
2022-11-08T08:37:44.296Z,17.39
2022-11-08T08:40:12.095Z,17.65
2022-11-08T08:42:38.874Z,17.98
2022-11-08T08:45:09.494Z,18.29
2022-11-08T08:47:38.983Z,18.44
2022-11-08T08:50:06.285Z,18.57
2022-11-08T08:52:32.991Z,18.69
2022-11-08T08:54:59.829Z,18.86
2022-11-08T08:57:26.610Z,19.04
2022-11-08T09:02:42.411Z,19.26
2022-11-08T09:05:11.101Z,19.19
2022-11-08T09:07:38.003Z,18.98
2022-11-08T09:10:06.072Z,18.77
2022-11-08T09:12:34.207Z,18.65
2022-11-08T09:15:01.255Z,18.62
2022-11-08T09:17:29.754Z,18.48
2022-11-08T09:19:57.416Z,18.28
2022-11-08T09:22:24.406Z,18.16
2022-11-08T09:24:51.384Z,18.09
2022-11-08T09:27:18.098Z,17.99
2022-11-08T09:29:45.016Z,17.93
2022-11-08T09:32:11.906Z,17.86
2022-11-08T09:34:38.627Z,17.74
2022-11-08T09:37:05.370Z,17.54
2022-11-08T09:39:32.103Z,17.29
2022-11-08T09:42:14.392Z,17.16
2022-11-08T09:44:57.244Z,17.07
2022-11-08T09:47:25.373Z,17.07
2022-11-08T09:50:16.087Z,17.09
2022-11-08T09:52:45.892Z,17.11
2022-11-08T09:55:28.607Z,17.09
2022-11-08T09:58:11.836Z,17.07
2022-11-08T10:00:40.697Z,17.03
2022-11-08T10:03:15.173Z,16.95
2022-11-08T10:06:00.766Z,17.01
2022-11-08T10:08:27.520Z,17.02
2022-11-08T10:11:21.662Z,16.99
2022-11-08T10:13:48.347Z,16.97
2022-11-08T10:16:31.562Z,16.88
2022-11-08T10:19:01.670Z,16.74
2022-11-08T10:21:44.338Z,16.74
2022-11-08T10:24:27.699Z,16.79
2022-11-08T10:26:58.341Z,16.84
2022-11-08T10:29:36.224Z,16.92
2022-11-08T10:32:21.559Z,16.92
2022-11-08T10:35:08.967Z,16.95
2022-11-08T10:37:35.699Z,17.00
2022-11-08T10:40:14.184Z,16.96
2022-11-08T10:42:46.748Z,16.92
2022-11-08T10:45:13.817Z,16.98
2022-11-08T10:47:41.517Z,17.06
2022-11-08T10:50:14.773Z,17.15
2022-11-08T10:52:47.875Z,17.19
2022-11-08T10:55:30.587Z,17.26
2022-11-08T10:57:57.536Z,17.45
2022-11-08T11:00:28.272Z,17.58
2022-11-08T11:02:58.600Z,17.71
2022-11-08T11:05:28.697Z,17.81
2022-11-08T11:08:00.599Z,17.69
2022-11-08T11:10:28.619Z,17.66
2022-11-08T11:13:04.223Z,17.77
2022-11-08T11:15:33.393Z,17.91
2022-11-08T11:18:00.277Z,18.05
2022-11-08T11:20:27.245Z,18.18
2022-11-08T11:22:54.452Z,18.34
2022-11-08T11:25:23.615Z,18.43
2022-11-08T11:27:57.793Z,18.51
2022-11-08T11:30:30.590Z,18.63
2022-11-08T11:33:02.158Z,18.69
2022-11-08T11:35:36.783Z,18.84
2022-11-08T11:38:11.508Z,18.81
2022-11-08T11:40:44.128Z,18.73
2022-11-08T11:43:31.388Z,18.69
2022-11-08T11:46:24.964Z,18.73
2022-11-08T11:49:02.506Z,18.96
2022-11-08T11:51:30.813Z,19.20
2022-11-08T11:53:58.377Z,19.39
2022-11-08T11:56:46.119Z,19.49
2022-11-08T11:59:29.417Z,19.68
2022-11-08T12:02:02.963Z,19.94
2022-11-08T12:04:33.114Z,20.14
2022-11-08T12:07:12.455Z,20.31
2022-11-08T12:10:01.584Z,20.60
2022-11-08T12:12:44.217Z,20.97
2022-11-08T12:15:23.995Z,21.21
2022-11-08T12:18:30.551Z,21.37
2022-11-08T12:21:35.337Z,21.64
2022-11-08T12:24:16.169Z,21.89
2022-11-08T12:27:01.709Z,22.10
2022-11-08T12:29:53.650Z,22.27
2022-11-08T12:32:37.013Z,22.38
2022-11-08T12:35:10.800Z,22.55
2022-11-08T12:37:48.342Z,22.86
2022-11-08T12:40:27.575Z,23.23
2022-11-08T12:43:07.920Z,23.46
2022-11-08T12:45:36.802Z,23.59
2022-11-08T12:48:19.380Z,23.76
2022-11-08T12:51:09.362Z,23.89
2022-11-08T12:54:07.523Z,23.82
2022-11-08T12:56:41.133Z,23.63
2022-11-08T12:59:24.384Z,23.70
2022-11-08T13:01:53.206Z,23.83
2022-11-08T13:04:24.722Z,23.94
2022-11-08T13:06:57.941Z,23.88
2022-11-08T13:09:43.874Z,23.77
2022-11-08T13:12:25.709Z,23.61
2022-11-08T13:14:52.734Z,23.60
2022-11-08T13:17:24.955Z,23.69
2022-11-08T13:19:51.625Z,23.68
2022-11-08T13:22:48.980Z,23.71
2022-11-08T13:25:16.769Z,23.73
2022-11-08T13:27:45.483Z,23.72
2022-11-08T13:30:12.155Z,23.85
2022-11-08T13:32:48.590Z,23.88
2022-11-08T13:35:31.790Z,23.90
2022-11-08T13:38:12.617Z,23.81
2022-11-08T13:40:49.883Z,23.61
2022-11-08T13:43:23.593Z,23.55
2022-11-08T13:45:51.596Z,23.66
2022-11-08T13:48:26.095Z,23.67
2022-11-08T13:50:55.003Z,23.46
2022-11-08T13:53:21.762Z,23.26
2022-11-08T13:55:56.849Z,23.08
2022-11-08T13:58:44.857Z,22.87
2022-11-08T14:01:19.049Z,22.67
2022-11-08T14:03:45.982Z,22.34
2022-11-08T14:06:35.471Z,22.05
2022-11-08T14:09:20.874Z,21.67
2022-11-08T14:12:14.701Z,21.34
2022-11-08T14:15:16.819Z,20.84
2022-11-08T14:17:51.833Z,20.29
2022-11-08T14:20:39.223Z,19.83
2022-11-08T14:23:22.019Z,19.33
2022-11-08T14:25:54.679Z,18.87
2022-11-08T14:28:31.941Z,18.45
2022-11-08T14:31:00.624Z,18.01
2022-11-08T14:33:29.963Z,17.61
2022-11-08T14:36:01.715Z,17.20
2022-11-08T14:38:51.902Z,16.71
2022-11-08T14:41:24.972Z,15.93
2022-11-08T14:43:54.156Z,15.24
2022-11-08T14:46:39.572Z,14.76
2022-11-08T14:49:14.150Z,14.41
2022-11-08T14:51:41.875Z,13.94
2022-11-08T14:54:25.239Z,13.44
2022-11-08T14:56:52.653Z,12.93
2022-11-08T14:59:19.391Z,12.67
2022-11-08T15:01:48.765Z,12.38
2022-11-08T15:04:18.449Z,11.97
2022-11-08T15:06:50.055Z,11.59
2022-11-08T15:09:22.076Z,11.33
2022-11-08T15:11:53.023Z,11.11
2022-11-08T15:14:23.420Z,10.76
2022-11-08T15:16:54.607Z,10.41
2022-11-08T15:19:39.277Z,10.19
2022-11-08T15:22:26.423Z,9.99
2022-11-08T15:25:00.468Z,9.70
2022-11-08T15:27:27.394Z,9.41
2022-11-08T15:30:06.866Z,9.25
2022-11-08T15:32:37.487Z,9.12
2022-11-08T15:35:06.409Z,8.92
2022-11-08T15:37:38.440Z,8.68
2022-11-08T15:40:17.964Z,8.50
2022-11-08T15:42:47.323Z,8.41
2022-11-08T15:45:14.038Z,8.29
2022-11-08T15:47:42.009Z,8.15
2022-11-08T15:50:13.171Z,7.99
2022-11-08T15:52:40.015Z,7.89
2022-11-08T15:55:07.435Z,7.78
2022-11-08T15:57:40.815Z,7.63
2022-11-08T16:00:15.591Z,7.50
2022-11-08T16:02:43.204Z,7.44
2022-11-08T16:05:16.424Z,7.44
2022-11-08T16:07:44.904Z,7.43
2022-11-08T16:10:13.147Z,7.41
2022-11-08T16:12:43.477Z,7.37
2022-11-08T16:15:13.033Z,7.30
2022-11-08T16:17:40.221Z,7.24
2022-11-08T16:20:22.124Z,7.22
2022-11-08T16:22:48.808Z,7.21
2022-11-08T16:25:15.697Z,7.19
2022-11-08T16:27:42.524Z,7.18
2022-11-08T16:30:16.500Z,7.19
2022-11-08T16:32:43.602Z,7.19
2022-11-08T16:35:11.061Z,7.20
2022-11-08T16:37:38.899Z,7.18
2022-11-08T16:40:24.327Z,7.16
2022-11-08T16:42:53.312Z,7.15
2022-11-08T16:45:43.277Z,7.14
2022-11-08T16:48:17.811Z,7.12
2022-11-08T16:50:45.770Z,7.05
2022-11-08T16:53:18.098Z,7.00
2022-11-08T16:55:45.831Z,6.94
2022-11-08T16:58:12.834Z,6.86
2022-11-08T17:00:42.221Z,6.80
2022-11-08T17:03:16.666Z,6.76
2022-11-08T17:05:43.396Z,6.73
2022-11-08T17:08:10.082Z,6.70
2022-11-08T17:10:36.789Z,6.67
2022-11-08T17:13:03.982Z,6.65
2022-11-08T17:15:30.990Z,6.62
2022-11-08T17:17:59.081Z,6.62
2022-11-08T17:20:27.247Z,6.60
2022-11-08T17:22:54.223Z,6.59
2022-11-08T17:25:23.405Z,6.55
2022-11-08T17:27:52.005Z,6.51
2022-11-08T17:30:25.445Z,6.48
2022-11-08T17:32:53.616Z,6.44
2022-11-08T17:35:20.972Z,6.40
2022-11-08T17:37:47.654Z,6.38
2022-11-08T17:40:14.663Z,6.36
2022-11-08T17:42:41.623Z,6.35
2022-11-08T17:45:10.457Z,6.35
2022-11-08T17:47:37.887Z,6.34
2022-11-08T17:50:06.513Z,6.31
2022-11-08T17:52:33.384Z,6.25
2022-11-08T17:55:00.057Z,6.17
2022-11-08T17:57:26.864Z,6.07
2022-11-08T17:59:53.991Z,5.96
2022-11-08T18:02:37.285Z,5.85
2022-11-08T18:05:04.485Z,5.76
2022-11-08T18:07:31.145Z,5.71
2022-11-08T18:09:57.853Z,5.65
2022-11-08T18:12:24.644Z,5.56
2022-11-08T18:14:51.395Z,5.50
2022-11-08T18:17:18.055Z,5.44
2022-11-08T18:19:45.477Z,5.38
2022-11-08T18:22:12.167Z,5.29
2022-11-08T18:24:38.896Z,5.23
2022-11-08T18:27:05.599Z,5.19
2022-11-08T18:29:32.852Z,5.16
2022-11-08T18:32:01.865Z,5.11
2022-11-08T18:34:28.687Z,5.04
2022-11-08T18:36:55.405Z,4.97
2022-11-08T18:39:22.089Z,4.92
2022-11-08T18:41:48.974Z,4.87
2022-11-08T18:44:15.770Z,4.82
2022-11-08T18:46:43.676Z,4.77
2022-11-08T18:49:11.315Z,4.74
2022-11-08T18:51:38.750Z,4.74
2022-11-08T18:54:05.503Z,4.74
2022-11-08T18:56:32.236Z,4.72
2022-11-08T18:58:58.954Z,4.71
2022-11-08T19:01:25.874Z,4.69
2022-11-08T19:03:52.802Z,4.65
2022-11-08T19:06:19.727Z,4.63
2022-11-08T19:08:46.715Z,4.60
2022-11-08T19:11:14.708Z,4.60
2022-11-08T19:13:42.057Z,4.62
2022-11-08T19:16:18.899Z,4.62
2022-11-08T19:18:47.108Z,4.60
2022-11-08T19:21:17.646Z,4.59
2022-11-08T19:23:46.089Z,4.56
2022-11-08T19:26:15.960Z,4.52
2022-11-08T19:28:45.806Z,4.46
2022-11-08T19:31:14.752Z,4.41
2022-11-08T19:33:41.789Z,4.38
2022-11-08T19:36:12.657Z,4.37
2022-11-08T19:38:40.360Z,4.40
2022-11-08T19:41:10.187Z,4.40
2022-11-08T19:43:38.220Z,4.40
2022-11-08T19:46:08.474Z,4.38
2022-11-08T19:48:38.118Z,4.32
2022-11-08T19:51:07.864Z,4.27
2022-11-08T19:53:39.489Z,4.19
2022-11-08T19:56:12.780Z,4.11
2022-11-08T19:58:47.187Z,4.06
2022-11-08T20:01:20.605Z,4.04
2022-11-08T20:03:48.182Z,4.01
2022-11-08T20:06:17.972Z,4.01
2022-11-08T20:08:49.037Z,4.00
2022-11-08T20:11:18.443Z,3.97
2022-11-08T20:13:46.005Z,3.90
2022-11-08T20:16:15.585Z,3.82
2022-11-08T20:18:43.868Z,3.75
2022-11-08T20:21:12.828Z,3.70
2022-11-08T20:23:42.620Z,3.66
2022-11-08T20:26:26.605Z,3.62
2022-11-08T20:28:57.558Z,3.59
2022-11-08T20:31:25.702Z,3.56
2022-11-08T20:34:10.420Z,3.50
2022-11-08T20:36:38.065Z,3.46
2022-11-08T20:39:08.253Z,3.39
2022-11-08T20:41:37.652Z,3.37
2022-11-08T20:44:06.007Z,3.34
2022-11-08T20:46:33.274Z,3.31
2022-11-08T20:49:01.459Z,3.30
2022-11-08T20:51:30.099Z,3.29
2022-11-08T20:53:58.805Z,3.30
2022-11-08T20:56:26.443Z,3.26
2022-11-08T20:58:53.762Z,3.22
2022-11-08T21:01:30.530Z,3.14
2022-11-08T21:03:59.101Z,3.03
2022-11-08T21:06:36.420Z,2.91
2022-11-08T21:09:31.111Z,2.84
2022-11-08T21:11:52.187Z,2.70
2022-11-08T21:14:19.551Z,2.58
2022-11-08T21:17:20.080Z,2.50
2022-11-08T21:19:33.385Z,2.47
2022-11-08T21:22:15.253Z,2.43
2022-11-08T21:24:43.860Z,2.36
2022-11-08T21:27:11.363Z,2.34
2022-11-08T21:29:38.543Z,2.35
2022-11-08T21:32:05.765Z,2.30
2022-11-08T21:34:32.895Z,2.26
2022-11-08T21:37:00.018Z,2.25
2022-11-08T21:39:27.054Z,2.21
2022-11-08T21:41:54.511Z,2.15
2022-11-08T21:44:21.394Z,2.11
2022-11-08T21:46:48.286Z,2.13
2022-11-08T21:49:15.417Z,2.14
2022-11-08T21:51:42.207Z,2.11
2022-11-08T21:54:09.120Z,2.09
2022-11-08T21:56:35.920Z,2.10
2022-11-08T21:59:03.512Z,2.09
2022-11-08T22:01:31.135Z,2.03
2022-11-08T22:03:59.320Z,2.00
2022-11-08T22:06:26.552Z,2.02
2022-11-08T22:08:53.658Z,2.06
2022-11-08T22:11:20.476Z,2.08
2022-11-08T22:13:47.202Z,2.04
2022-11-08T22:16:14.235Z,2.04
2022-11-08T22:21:43.627Z,2.01
2022-11-08T22:24:13.506Z,1.95
2022-11-08T22:26:41.671Z,1.97
2022-11-08T22:29:08.997Z,2.03
2022-11-08T22:31:36.286Z,2.08
2022-11-08T22:34:04.452Z,2.04
2022-11-08T22:36:31.188Z,2.02
2022-11-08T22:38:58.065Z,2.00
2022-11-08T22:41:25.263Z,1.98
2022-11-08T22:43:52.527Z,1.96
2022-11-08T22:46:19.693Z,1.94
2022-11-08T22:48:46.422Z,1.89
2022-11-08T22:51:13.928Z,1.86
2022-11-08T22:53:41.662Z,1.88
2022-11-08T22:56:11.687Z,1.86
2022-11-08T22:58:39.637Z,1.77
2022-11-08T23:01:08.386Z,1.69
2022-11-08T23:03:35.145Z,1.68
2022-11-08T23:06:01.894Z,1.69
2022-11-08T23:08:29.065Z,1.61
2022-11-08T23:11:13.847Z,1.53
2022-11-08T23:13:56.651Z,1.48
2022-11-08T23:16:33.683Z,1.45
2022-11-08T23:19:18.584Z,1.41
2022-11-08T23:22:01.029Z,1.37
2022-11-08T23:24:28.946Z,1.36
2022-11-08T23:27:11.371Z,1.39
2022-11-08T23:29:53.615Z,1.43
2022-11-08T23:32:20.561Z,1.38
2022-11-08T23:34:47.349Z,1.40
2022-11-08T23:37:14.219Z,1.45
2022-11-08T23:40:01.035Z,1.45
2022-11-08T23:42:43.045Z,1.38
2022-11-08T23:45:10.104Z,1.34
2022-11-08T23:47:37.194Z,1.37
2022-11-08T23:50:04.242Z,1.38
2022-11-08T23:52:32.255Z,1.36
2022-11-08T23:54:58.966Z,1.35
2022-11-08T23:57:25.654Z,1.36
2022-11-08T23:59:52.410Z,1.38
